createdAt,value
2018-07-04T00:00:32.986Z,22.41
2018-07-04T00:01:32.889Z,22.41
2018-07-04T00:02:33.127Z,22.41
2018-07-04T00:03:32.820Z,22.41
2018-07-04T00:04:33.014Z,22.4
2018-07-04T00:05:32.987Z,22.41
2018-07-04T00:06:32.981Z,22.41
2018-07-04T00:07:33.068Z,22.42
2018-07-04T00:08:32.942Z,22.41
2018-07-04T00:09:33.004Z,22.41
2018-07-04T00:10:32.983Z,22.41
2018-07-04T00:11:33.036Z,22.4
2018-07-04T00:12:32.888Z,22.4
2018-07-04T00:13:33.066Z,22.4
2018-07-04T00:14:33.051Z,22.41
2018-07-04T00:15:33.174Z,22.4
2018-07-04T00:16:32.972Z,22.4
2018-07-04T00:17:32.822Z,22.4
2018-07-04T00:18:32.959Z,22.4
2018-07-04T00:19:33.021Z,22.41
2018-07-04T00:20:32.945Z,22.39
2018-07-04T00:21:33.093Z,22.4
2018-07-04T00:22:33.037Z,22.4
2018-07-04T00:23:32.976Z,22.4
2018-07-04T00:24:33.025Z,22.4
2018-07-04T00:25:33.168Z,22.39
2018-07-04T00:26:32.879Z,22.4
2018-07-04T00:27:32.979Z,22.41
2018-07-04T00:28:33.115Z,22.4
2018-07-04T00:29:32.949Z,22.4
2018-07-04T00:30:32.862Z,22.4
2018-07-04T00:31:32.894Z,22.39
2018-07-04T00:32:33.138Z,22.4
2018-07-04T00:33:32.966Z,22.39
2018-07-04T00:34:33.014Z,22.39
2018-07-04T00:35:32.984Z,22.4
2018-07-04T00:36:32.975Z,22.4
2018-07-04T00:37:32.913Z,22.39
2018-07-04T00:38:32.934Z,22.39
2018-07-04T00:39:33.066Z,22.39
2018-07-04T00:40:33.071Z,22.39
2018-07-04T00:41:33.125Z,22.4
2018-07-04T00:42:33.155Z,22.39
2018-07-04T00:43:33.141Z,22.4
2018-07-04T00:44:32.848Z,22.39
2018-07-04T00:45:33.051Z,22.39
2018-07-04T00:46:32.969Z,22.39
2018-07-04T00:47:33.039Z,22.39
2018-07-04T00:48:33.186Z,22.39
2018-07-04T00:49:33.036Z,22.39
2018-07-04T00:50:33.039Z,22.39
2018-07-04T00:51:32.916Z,22.39
2018-07-04T00:52:32.984Z,22.39
2018-07-04T00:53:32.899Z,22.38
2018-07-04T00:54:33.172Z,22.39
2018-07-04T00:55:33.099Z,22.39
2018-07-04T00:56:32.949Z,22.39
2018-07-04T00:57:33.050Z,22.4
2018-07-04T00:58:32.884Z,22.39
2018-07-04T00:59:32.968Z,22.38
2018-07-04T01:00:32.937Z,22.39
2018-07-04T01:01:33.120Z,22.38
2018-07-04T01:02:32.844Z,22.4
2018-07-04T01:03:33.020Z,22.39
2018-07-04T01:04:33.148Z,22.38
2018-07-04T01:05:33.022Z,22.39
2018-07-04T01:06:32.815Z,22.39
2018-07-04T01:07:33.072Z,22.38
2018-07-04T01:08:33.056Z,22.38
2018-07-04T01:09:33.061Z,22.38
2018-07-04T01:10:33.011Z,22.38
2018-07-04T01:11:32.899Z,22.38
2018-07-04T01:12:33.049Z,22.38
2018-07-04T01:13:32.814Z,22.38
2018-07-04T01:14:32.949Z,22.38
2018-07-04T01:15:33.022Z,22.38
2018-07-04T01:16:32.891Z,22.39
2018-07-04T01:17:32.907Z,22.38
2018-07-04T01:18:33.028Z,22.38
2018-07-04T01:19:33.072Z,22.38
2018-07-04T01:20:32.854Z,22.39
2018-07-04T01:21:32.941Z,22.38
2018-07-04T01:22:33.097Z,22.38
2018-07-04T01:23:32.943Z,22.38
2018-07-04T01:24:32.974Z,22.37
2018-07-04T01:25:33.032Z,22.37
2018-07-04T01:26:33.019Z,22.38
2018-07-04T01:27:33.016Z,22.39
2018-07-04T01:28:33.104Z,22.37
2018-07-04T01:29:32.833Z,22.38
2018-07-04T01:30:32.936Z,22.37
2018-07-04T01:31:33.047Z,22.37
2018-07-04T01:32:33.075Z,22.38
2018-07-04T01:33:32.912Z,22.38
2018-07-04T01:34:33.012Z,22.38
2018-07-04T01:35:33.079Z,22.37
2018-07-04T01:36:33.001Z,22.36
2018-07-04T01:37:33.011Z,22.37
2018-07-04T01:38:32.842Z,22.38
2018-07-04T01:39:32.884Z,22.37
2018-07-04T01:40:33.158Z,22.37
2018-07-04T01:41:34.552Z,22.38
2018-07-04T01:42:33.036Z,22.38
2018-07-04T01:43:33.038Z,22.37
2018-07-04T01:44:33.091Z,22.37
2018-07-04T01:45:33.056Z,22.37
2018-07-04T01:46:32.950Z,22.37
2018-07-04T01:48:04.811Z,22.38
2018-07-04T01:48:33.023Z,22.38
2018-07-04T01:49:32.902Z,22.37
2018-07-04T01:50:32.999Z,22.37
2018-07-04T01:51:33.047Z,22.37
2018-07-04T01:52:32.904Z,22.37
2018-07-04T01:53:33.037Z,22.37
2018-07-04T01:54:33.069Z,22.37
2018-07-04T01:55:33.079Z,22.37
2018-07-04T01:56:33.068Z,22.38
2018-07-04T01:57:33.049Z,22.37
2018-07-04T01:58:33.005Z,22.37
2018-07-04T01:59:33.053Z,22.37
2018-07-04T02:00:32.945Z,22.36
2018-07-04T02:01:42.908Z,22.37
2018-07-04T02:02:32.907Z,22.36
2018-07-04T02:03:32.979Z,22.37
2018-07-04T02:04:33.004Z,22.36
2018-07-04T02:05:32.862Z,22.37
2018-07-04T02:06:32.835Z,22.36
2018-07-04T02:07:32.996Z,22.36
2018-07-04T02:08:32.976Z,22.36
2018-07-04T02:09:32.990Z,22.36
2018-07-04T02:10:32.913Z,22.37
2018-07-04T02:11:32.838Z,22.36
2018-07-04T02:12:32.997Z,22.36
2018-07-04T02:13:32.948Z,22.36
2018-07-04T02:14:32.980Z,22.36
2018-07-04T02:15:43.040Z,22.36
2018-07-04T02:16:32.919Z,22.36
2018-07-04T02:17:33.032Z,22.36
2018-07-04T02:18:33.070Z,22.36
2018-07-04T02:19:33.148Z,22.35
2018-07-04T02:20:32.837Z,22.36
2018-07-04T02:21:32.925Z,22.36
2018-07-04T02:22:32.835Z,22.36
2018-07-04T02:23:33.062Z,22.36
2018-07-04T02:24:33.116Z,22.37
2018-07-04T02:25:32.821Z,22.36
2018-07-04T02:26:32.882Z,22.36
2018-07-04T02:27:32.989Z,22.36
2018-07-04T02:28:32.865Z,22.36
2018-07-04T02:29:32.846Z,22.36
2018-07-04T02:30:32.844Z,22.37
2018-07-04T02:31:33.019Z,22.36
2018-07-04T02:32:33.039Z,22.37
2018-07-04T02:33:32.983Z,22.35
2018-07-04T02:34:33.000Z,22.36
2018-07-04T02:35:32.979Z,22.36
2018-07-04T02:36:32.935Z,22.37
2018-07-04T02:37:32.959Z,22.36
2018-07-04T02:38:32.841Z,22.36
2018-07-04T02:39:33.150Z,22.35
2018-07-04T02:40:32.994Z,22.36
2018-07-04T02:41:32.883Z,22.37
2018-07-04T02:42:33.030Z,22.36
2018-07-04T02:43:32.839Z,22.36
2018-07-04T02:44:33.030Z,22.36
2018-07-04T02:45:32.901Z,22.36
2018-07-04T02:46:33.008Z,22.36
2018-07-04T02:47:32.894Z,22.35
2018-07-04T02:48:33.059Z,22.36
2018-07-04T02:49:32.789Z,22.36
2018-07-04T02:50:32.883Z,22.35
2018-07-04T02:51:32.911Z,22.35
2018-07-04T02:52:33.078Z,22.35
2018-07-04T02:53:33.038Z,22.36
2018-07-04T02:54:33.050Z,22.36
2018-07-04T02:55:32.941Z,22.36
2018-07-04T02:56:32.903Z,22.36
2018-07-04T02:57:32.837Z,22.35
2018-07-04T02:58:32.814Z,22.36
2018-07-04T02:59:32.986Z,22.34
2018-07-04T03:00:33.062Z,22.36
2018-07-04T03:01:33.190Z,22.36
2018-07-04T03:02:32.960Z,22.36
2018-07-04T03:03:32.994Z,22.35
2018-07-04T03:04:32.848Z,22.36
2018-07-04T03:05:32.938Z,22.36
2018-07-04T03:06:32.983Z,22.35
2018-07-04T03:07:32.950Z,22.35
2018-07-04T03:08:32.978Z,22.34
2018-07-04T03:09:33.156Z,22.35
2018-07-04T03:10:33.221Z,22.35
2018-07-04T03:11:33.026Z,22.35
2018-07-04T03:12:33.058Z,22.35
2018-07-04T03:13:33.028Z,22.36
2018-07-04T03:14:32.946Z,22.35
2018-07-04T03:15:33.077Z,22.35
2018-07-04T03:16:32.795Z,22.34
2018-07-04T03:17:33.180Z,22.34
2018-07-04T03:18:32.908Z,22.35
2018-07-04T03:19:33.000Z,22.34
2018-07-04T03:20:33.089Z,22.35
2018-07-04T03:21:32.966Z,22.34
2018-07-04T03:22:33.094Z,22.35
2018-07-04T03:23:32.875Z,22.36
2018-07-04T03:24:33.172Z,22.35
2018-07-04T03:25:32.869Z,22.35
2018-07-04T03:26:32.996Z,22.34
2018-07-04T03:27:33.040Z,22.35
2018-07-04T03:28:32.903Z,22.35
2018-07-04T03:29:33.024Z,22.35
2018-07-04T03:30:32.953Z,22.34
2018-07-04T03:31:33.111Z,22.34
2018-07-04T03:32:33.095Z,22.34
2018-07-04T03:33:33.049Z,22.35
2018-07-04T03:34:32.914Z,22.34
2018-07-04T03:35:32.930Z,22.35
2018-07-04T03:36:32.785Z,22.35
2018-07-04T03:37:32.879Z,22.34
2018-07-04T03:38:32.812Z,22.34
2018-07-04T03:39:33.074Z,22.34
2018-07-04T03:40:32.797Z,22.34
2018-07-04T03:41:33.034Z,22.35
2018-07-04T03:42:32.890Z,22.34
2018-07-04T03:43:33.094Z,22.33
2018-07-04T03:44:33.001Z,22.34
2018-07-04T03:45:32.841Z,22.35
2018-07-04T03:46:32.890Z,22.34
2018-07-04T03:47:32.977Z,22.34
2018-07-04T03:48:32.789Z,22.34
2018-07-04T03:49:32.972Z,22.34
2018-07-04T03:50:33.053Z,22.34
2018-07-04T03:51:33.094Z,22.34
2018-07-04T03:52:32.913Z,22.34
2018-07-04T03:53:32.836Z,22.35
2018-07-04T03:54:32.840Z,22.34
2018-07-04T03:55:32.814Z,22.33
2018-07-04T03:56:32.946Z,22.34
2018-07-04T03:57:32.853Z,22.34
2018-07-04T03:58:32.887Z,22.34
2018-07-04T03:59:33.038Z,22.35
2018-07-04T04:00:33.036Z,22.34
2018-07-04T04:01:32.916Z,22.34
2018-07-04T04:02:32.882Z,22.35
2018-07-04T04:03:32.876Z,22.34
2018-07-04T04:04:32.901Z,22.34
2018-07-04T04:05:32.789Z,22.34
2018-07-04T04:06:33.075Z,22.34
2018-07-04T04:07:32.991Z,22.34
2018-07-04T04:08:33.010Z,22.34
2018-07-04T04:09:32.992Z,22.34
2018-07-04T04:10:32.799Z,22.33
2018-07-04T04:11:33.035Z,22.34
2018-07-04T04:12:32.801Z,22.33
2018-07-04T04:13:32.985Z,22.33
2018-07-04T04:14:32.949Z,22.33
2018-07-04T04:15:32.863Z,22.34
2018-07-04T04:16:33.027Z,22.33
2018-07-04T04:17:33.050Z,22.33
2018-07-04T04:18:32.831Z,22.32
2018-07-04T04:19:32.912Z,22.33
2018-07-04T04:20:33.031Z,22.33
2018-07-04T04:21:32.853Z,22.33
2018-07-04T04:22:33.025Z,22.34
2018-07-04T04:23:33.063Z,22.34
2018-07-04T04:24:33.041Z,22.33
2018-07-04T04:25:33.052Z,22.34
2018-07-04T04:26:32.927Z,22.34
2018-07-04T04:27:33.018Z,22.33
2018-07-04T04:28:33.038Z,22.33
2018-07-04T04:29:32.832Z,22.33
2018-07-04T04:30:32.873Z,22.33
2018-07-04T04:31:33.014Z,22.31
2018-07-04T04:32:32.989Z,22.32
2018-07-04T04:33:33.103Z,22.32
2018-07-04T04:34:33.083Z,22.33
2018-07-04T04:35:32.806Z,22.33
2018-07-04T04:36:32.831Z,22.32
2018-07-04T04:37:32.912Z,22.33
2018-07-04T04:38:32.917Z,22.33
2018-07-04T04:39:32.828Z,22.34
2018-07-04T04:40:32.961Z,22.33
2018-07-04T04:41:33.004Z,22.33
2018-07-04T04:42:33.049Z,22.33
2018-07-04T04:43:32.844Z,22.33
2018-07-04T04:44:32.949Z,22.33
2018-07-04T04:45:32.943Z,22.33
2018-07-04T04:46:33.062Z,22.33
2018-07-04T04:47:33.056Z,22.33
2018-07-04T04:48:33.056Z,22.34
2018-07-04T04:49:32.831Z,22.33
2018-07-04T04:50:32.845Z,22.33
2018-07-04T04:51:32.885Z,22.33
2018-07-04T04:52:32.841Z,22.33
2018-07-04T04:53:33.046Z,22.34
2018-07-04T04:54:33.047Z,22.33
2018-07-04T04:55:33.116Z,22.33
2018-07-04T04:56:32.993Z,22.32
2018-07-04T04:57:32.996Z,22.33
2018-07-04T04:58:32.913Z,22.32
2018-07-04T04:59:32.754Z,22.33
2018-07-04T05:00:32.857Z,22.34
2018-07-04T05:01:32.923Z,22.33
2018-07-04T05:02:33.151Z,22.33
2018-07-04T05:03:32.979Z,22.33
2018-07-04T05:04:32.824Z,22.33
2018-07-04T05:05:32.836Z,22.34
2018-07-04T05:06:32.920Z,22.33
2018-07-04T05:07:32.914Z,22.33
2018-07-04T05:08:32.859Z,22.33
2018-07-04T05:09:32.909Z,22.33
2018-07-04T05:10:32.981Z,22.33
2018-07-04T05:11:32.792Z,22.34
2018-07-04T05:12:33.069Z,22.33
2018-07-04T05:13:32.942Z,22.33
2018-07-04T05:14:32.913Z,22.32
2018-07-04T05:15:33.042Z,22.33
2018-07-04T05:16:32.878Z,22.32
2018-07-04T05:17:32.860Z,22.33
2018-07-04T05:18:32.830Z,22.34
2018-07-04T05:19:32.833Z,22.33
2018-07-04T05:20:33.060Z,22.33
2018-07-04T05:21:33.052Z,22.33
2018-07-04T05:22:32.850Z,22.33
2018-07-04T05:23:32.900Z,22.33
2018-07-04T05:24:32.897Z,22.32
2018-07-04T05:25:33.087Z,22.33
2018-07-04T05:26:32.831Z,22.34
2018-07-04T05:27:33.012Z,22.34
2018-07-04T05:28:32.874Z,22.34
2018-07-04T05:29:32.986Z,22.33
2018-07-04T05:30:32.932Z,22.33
2018-07-04T05:31:32.934Z,22.32
2018-07-04T05:32:32.885Z,22.33
2018-07-04T05:33:32.882Z,22.32
2018-07-04T05:34:32.928Z,22.34
2018-07-04T05:35:32.895Z,22.33
2018-07-04T05:36:33.070Z,22.32
2018-07-04T05:37:32.958Z,22.33
2018-07-04T05:38:32.956Z,22.32
2018-07-04T05:39:32.841Z,22.33
2018-07-04T05:40:32.972Z,22.32
2018-07-04T05:41:33.036Z,22.32
2018-07-04T05:42:33.078Z,22.34
2018-07-04T05:43:33.117Z,22.32
2018-07-04T05:44:32.960Z,22.32
2018-07-04T05:45:33.026Z,22.33
2018-07-04T05:46:32.918Z,22.33
2018-07-04T05:47:32.962Z,22.32
2018-07-04T05:48:33.035Z,22.32
2018-07-04T05:49:32.869Z,22.32
2018-07-04T05:50:33.069Z,22.33
2018-07-04T05:51:32.879Z,22.33
2018-07-04T05:52:33.010Z,22.32
2018-07-04T05:53:32.793Z,22.33
2018-07-04T05:54:33.031Z,22.33
2018-07-04T05:55:32.814Z,22.33
2018-07-04T05:56:32.962Z,22.33
2018-07-04T05:57:32.973Z,22.33
2018-07-04T05:58:32.786Z,22.33
2018-07-04T05:59:32.915Z,22.33
2018-07-04T06:00:32.804Z,22.34
2018-07-04T06:01:32.894Z,22.32
2018-07-04T06:03:03.787Z,22.34
2018-07-04T06:03:32.947Z,22.32
2018-07-04T06:04:32.976Z,22.32
2018-07-04T06:05:32.832Z,22.31
2018-07-04T06:06:32.969Z,22.32
2018-07-04T06:07:32.780Z,22.32
2018-07-04T06:08:32.984Z,22.32
2018-07-04T06:09:32.889Z,22.34
2018-07-04T06:10:32.991Z,22.33
2018-07-04T06:11:32.950Z,22.33
2018-07-04T06:12:32.922Z,22.32
2018-07-04T06:13:32.865Z,22.33
2018-07-04T06:14:32.920Z,22.32
2018-07-04T06:15:32.870Z,22.32
2018-07-04T06:16:32.798Z,22.33
2018-07-04T06:17:32.881Z,22.33
2018-07-04T06:18:32.871Z,22.32
2018-07-04T06:19:32.993Z,22.33
2018-07-04T06:20:32.765Z,22.33
2018-07-04T06:21:32.943Z,22.33
2018-07-04T06:22:32.955Z,22.32
2018-07-04T06:23:32.780Z,22.33
2018-07-04T06:24:32.984Z,22.33
2018-07-04T06:25:32.780Z,22.33
2018-07-04T06:26:33.016Z,22.31
2018-07-04T06:27:33.030Z,22.33
2018-07-04T06:28:32.947Z,22.32
2018-07-04T06:29:32.791Z,22.33
2018-07-04T06:30:32.935Z,22.32
2018-07-04T06:31:32.941Z,22.31
2018-07-04T06:32:32.835Z,22.33
2018-07-04T06:33:33.052Z,22.33
2018-07-04T06:34:32.797Z,22.34
2018-07-04T06:35:32.896Z,22.33
2018-07-04T06:36:33.040Z,22.32
2018-07-04T06:37:32.957Z,22.32
2018-07-04T06:38:32.977Z,22.32
2018-07-04T06:39:32.892Z,22.32
2018-07-04T06:40:32.796Z,22.32
2018-07-04T06:41:32.827Z,22.33
2018-07-04T06:42:32.854Z,22.32
2018-07-04T06:43:32.821Z,22.32
2018-07-04T06:44:32.804Z,22.35
2018-07-04T06:45:32.948Z,22.37
2018-07-04T06:46:32.990Z,22.35
2018-07-04T06:47:33.052Z,22.37
2018-07-04T06:48:32.980Z,22.34
2018-07-04T06:49:32.962Z,22.37
2018-07-04T06:50:32.904Z,22.37
2018-07-04T06:51:33.027Z,22.38
2018-07-04T06:52:32.799Z,22.39
2018-07-04T06:53:32.963Z,22.4
2018-07-04T06:54:33.052Z,22.4
2018-07-04T06:55:32.895Z,22.42
2018-07-04T06:56:32.958Z,22.42
2018-07-04T06:57:32.890Z,22.43
2018-07-04T06:58:32.923Z,22.43
2018-07-04T06:59:33.186Z,22.45
2018-07-04T07:00:32.996Z,22.46
2018-07-04T07:01:32.781Z,22.44
2018-07-04T07:02:32.852Z,22.46
2018-07-04T07:03:32.963Z,22.47
2018-07-04T07:04:33.002Z,22.44
2018-07-04T07:05:32.844Z,22.47
2018-07-04T07:06:32.999Z,22.47
2018-07-04T07:07:32.994Z,22.47
2018-07-04T07:08:33.088Z,22.48
2018-07-04T07:09:32.878Z,22.48
2018-07-04T07:10:32.788Z,22.48
2018-07-04T07:11:32.849Z,22.49
2018-07-04T07:12:33.052Z,22.48
2018-07-04T07:13:32.928Z,22.48
2018-07-04T07:14:33.011Z,22.49
2018-07-04T07:15:32.854Z,22.49
2018-07-04T07:16:32.819Z,22.51
2018-07-04T07:17:33.217Z,22.5
2018-07-04T07:18:32.870Z,22.51
2018-07-04T07:19:32.833Z,22.51
2018-07-04T07:20:32.959Z,22.52
2018-07-04T07:21:32.825Z,22.53
2018-07-04T07:22:32.899Z,22.52
2018-07-04T07:23:32.943Z,22.52
2018-07-04T07:24:33.013Z,22.48
2018-07-04T07:25:32.828Z,22.51
2018-07-04T07:26:32.825Z,22.51
2018-07-04T07:27:32.934Z,22.51
2018-07-04T07:28:32.767Z,22.5
2018-07-04T07:29:32.891Z,22.5
2018-07-04T07:30:32.871Z,22.5
2018-07-04T07:31:32.867Z,22.48
2018-07-04T07:32:32.843Z,22.49
2018-07-04T07:33:32.945Z,22.48
2018-07-04T07:34:33.017Z,22.48
2018-07-04T07:35:32.961Z,22.49
2018-07-04T07:36:32.949Z,22.47
2018-07-04T07:37:32.761Z,22.47
2018-07-04T07:38:33.013Z,22.48
2018-07-04T07:39:32.958Z,22.47
2018-07-04T07:40:32.894Z,22.48
2018-07-04T07:41:32.781Z,22.47
2018-07-04T07:42:32.919Z,22.48
2018-07-04T07:43:32.921Z,22.47
2018-07-04T07:44:32.837Z,22.47
2018-07-04T07:45:33.105Z,22.47
2018-07-04T07:46:32.811Z,22.45
2018-07-04T07:47:32.902Z,22.45
2018-07-04T07:48:32.921Z,22.45
2018-07-04T07:49:32.857Z,22.45
2018-07-04T07:50:32.811Z,22.45
2018-07-04T07:51:32.986Z,22.45
2018-07-04T07:52:33.015Z,22.45
2018-07-04T07:53:33.047Z,22.44
2018-07-04T07:54:32.832Z,22.44
2018-07-04T07:55:32.755Z,22.44
2018-07-04T07:56:32.831Z,22.45
2018-07-04T07:57:33.035Z,22.45
2018-07-04T07:58:32.764Z,22.45
2018-07-04T07:59:33.079Z,22.45
2018-07-04T08:00:32.884Z,22.45
2018-07-04T08:01:33.014Z,22.44
2018-07-04T08:02:32.837Z,22.45
2018-07-04T08:03:32.908Z,22.44
2018-07-04T08:04:32.780Z,22.43
2018-07-04T08:05:32.990Z,22.43
2018-07-04T08:06:33.043Z,22.43
2018-07-04T08:07:32.879Z,22.43
2018-07-04T08:08:32.920Z,22.43
2018-07-04T08:09:32.973Z,22.44
2018-07-04T08:10:33.103Z,22.43
2018-07-04T08:11:32.980Z,22.43
2018-07-04T08:12:32.995Z,22.44
2018-07-04T08:13:33.032Z,22.43
2018-07-04T08:14:32.925Z,22.44
2018-07-04T08:15:32.881Z,22.43
2018-07-04T08:16:32.942Z,22.43
2018-07-04T08:17:33.017Z,22.44
2018-07-04T08:18:32.989Z,22.43
2018-07-04T08:19:32.761Z,22.44
2018-07-04T08:20:32.898Z,22.43
2018-07-04T08:21:32.890Z,22.44
2018-07-04T08:22:32.745Z,22.43
2018-07-04T08:23:32.993Z,22.44
2018-07-04T08:24:32.968Z,22.42
2018-07-04T08:25:33.032Z,22.43
2018-07-04T08:26:32.805Z,22.44
2018-07-04T08:27:33.003Z,22.44
2018-07-04T08:28:32.895Z,22.43
2018-07-04T08:29:33.004Z,22.43
2018-07-04T08:30:32.859Z,22.43
2018-07-04T08:31:32.791Z,22.43
2018-07-04T08:32:32.934Z,22.43
2018-07-04T08:33:32.976Z,22.43
2018-07-04T08:34:33.165Z,22.43
2018-07-04T08:35:32.796Z,22.43
2018-07-04T08:36:32.802Z,22.43
2018-07-04T08:37:32.938Z,22.43
2018-07-04T08:38:32.880Z,22.43
2018-07-04T08:39:32.888Z,22.43
2018-07-04T08:40:32.768Z,22.43
2018-07-04T08:41:32.946Z,22.43
2018-07-04T08:42:32.885Z,22.43
2018-07-04T08:43:32.860Z,22.42
2018-07-04T08:44:32.853Z,22.42
2018-07-04T08:45:32.961Z,22.43
2018-07-04T08:46:32.812Z,22.43
2018-07-04T08:47:32.809Z,22.43
2018-07-04T08:48:33.018Z,22.42
2018-07-04T08:49:32.916Z,22.43
2018-07-04T08:50:33.100Z,22.42
2018-07-04T08:51:32.917Z,22.42
2018-07-04T08:52:32.915Z,22.43
2018-07-04T08:53:32.988Z,22.42
2018-07-04T08:54:32.824Z,22.43
2018-07-04T08:55:33.077Z,22.44
2018-07-04T08:56:32.809Z,22.44
2018-07-04T08:57:32.976Z,22.47
2018-07-04T08:58:42.843Z,22.46
2018-07-04T08:59:33.024Z,22.48
2018-07-04T09:00:33.065Z,22.48
2018-07-04T09:01:32.768Z,22.49
2018-07-04T09:02:32.962Z,22.49
2018-07-04T09:03:32.889Z,22.5
2018-07-04T09:04:32.884Z,22.51
2018-07-04T09:05:32.893Z,22.51
2018-07-04T09:06:32.781Z,22.52
2018-07-04T09:07:32.727Z,22.52
2018-07-04T09:08:32.775Z,22.51
2018-07-04T09:09:32.806Z,22.51
2018-07-04T09:10:32.746Z,22.5
2018-07-04T09:11:33.033Z,22.5
2018-07-04T09:12:33.018Z,22.5
2018-07-04T09:13:32.939Z,22.5
2018-07-04T09:14:32.876Z,22.49
2018-07-04T09:15:32.798Z,22.49
2018-07-04T09:16:32.917Z,22.49
2018-07-04T09:17:33.018Z,22.48
2018-07-04T09:18:32.808Z,22.48
2018-07-04T09:19:32.830Z,22.48
2018-07-04T09:20:32.814Z,22.47
2018-07-04T09:21:32.820Z,22.47
2018-07-04T09:22:32.891Z,22.47
2018-07-04T09:23:32.906Z,22.47
2018-07-04T09:24:33.001Z,22.48
2018-07-04T09:25:32.991Z,22.48
2018-07-04T09:26:32.744Z,22.46
2018-07-04T09:27:32.684Z,22.47
2018-07-04T09:28:32.885Z,22.47
2018-07-04T09:29:32.845Z,22.47
2018-07-04T09:30:32.774Z,22.46
2018-07-04T09:31:32.864Z,22.46
2018-07-04T09:32:33.058Z,22.47
2018-07-04T09:33:32.851Z,22.47
2018-07-04T09:34:33.021Z,22.46
2018-07-04T09:35:32.858Z,22.46
2018-07-04T09:36:32.891Z,22.47
2018-07-04T09:37:32.877Z,22.46
2018-07-04T09:38:32.767Z,22.46
2018-07-04T09:39:32.736Z,22.46
2018-07-04T09:40:32.839Z,22.46
2018-07-04T09:41:32.772Z,22.46
2018-07-04T09:42:32.881Z,22.46
2018-07-04T09:43:32.753Z,22.46
2018-07-04T09:44:32.756Z,22.46
2018-07-04T09:45:32.802Z,22.46
2018-07-04T09:46:32.725Z,22.46
2018-07-04T09:47:32.789Z,22.45
2018-07-04T09:48:32.802Z,22.46
2018-07-04T09:49:32.973Z,22.45
2018-07-04T09:50:32.828Z,22.45
2018-07-04T09:51:33.044Z,22.45
2018-07-04T09:52:32.824Z,22.44
2018-07-04T09:53:32.986Z,22.45
2018-07-04T09:54:32.763Z,22.45
2018-07-04T09:55:32.924Z,22.45
2018-07-04T09:56:32.755Z,22.45
2018-07-04T09:57:33.181Z,22.45
2018-07-04T09:58:32.940Z,22.46
2018-07-04T09:59:32.822Z,22.45
2018-07-04T10:00:32.751Z,22.45
2018-07-04T10:01:32.954Z,22.45
2018-07-04T10:02:32.954Z,22.45
2018-07-04T10:03:32.943Z,22.45
2018-07-04T10:04:32.906Z,22.45
2018-07-04T10:05:32.883Z,22.46
2018-07-04T10:06:32.787Z,22.45
2018-07-04T10:07:32.709Z,22.45
2018-07-04T10:08:32.838Z,22.44
2018-07-04T10:09:32.965Z,22.44
2018-07-04T10:10:32.992Z,22.44
2018-07-04T10:11:32.819Z,22.45
2018-07-04T10:12:32.923Z,22.44
2018-07-04T10:13:32.890Z,22.44
2018-07-04T10:14:33.124Z,22.44
2018-07-04T10:15:32.979Z,22.45
2018-07-04T10:16:32.912Z,22.45
2018-07-04T10:17:32.793Z,22.44
2018-07-04T10:18:32.890Z,22.43
2018-07-04T10:19:32.773Z,22.44
2018-07-04T10:20:32.785Z,22.45
2018-07-04T10:21:32.975Z,22.45
2018-07-04T10:22:32.747Z,22.44
2018-07-04T10:23:32.900Z,22.43
2018-07-04T10:24:32.948Z,22.44
2018-07-04T10:25:32.933Z,22.43
2018-07-04T10:26:33.036Z,22.44
2018-07-04T10:27:32.842Z,22.44
2018-07-04T10:28:32.972Z,22.43
2018-07-04T10:29:32.733Z,22.43
2018-07-04T10:30:32.814Z,22.43
2018-07-04T10:31:32.977Z,22.43
2018-07-04T10:32:32.795Z,22.43
2018-07-04T10:33:32.887Z,22.43
2018-07-04T10:34:32.777Z,22.43
2018-07-04T10:35:32.751Z,22.43
2018-07-04T10:36:33.001Z,22.43
2018-07-04T10:37:32.936Z,22.43
2018-07-04T10:38:32.994Z,22.43
2018-07-04T10:39:32.987Z,22.43
2018-07-04T10:40:32.838Z,22.43
2018-07-04T10:41:32.696Z,22.43
2018-07-04T10:42:32.963Z,22.44
2018-07-04T10:43:32.744Z,22.44
2018-07-04T10:44:33.049Z,22.43
2018-07-04T10:45:32.815Z,22.44
2018-07-04T10:46:33.045Z,22.43
2018-07-04T10:47:32.818Z,22.43
2018-07-04T10:48:33.093Z,22.43
2018-07-04T10:49:32.833Z,22.44
2018-07-04T10:50:32.794Z,22.43
2018-07-04T10:51:32.856Z,22.43
2018-07-04T10:52:33.112Z,22.43
2018-07-04T10:53:32.907Z,22.43
2018-07-04T10:54:32.860Z,22.42
2018-07-04T10:55:32.921Z,22.43
2018-07-04T10:56:32.836Z,22.42
2018-07-04T10:57:32.775Z,22.42
2018-07-04T10:58:32.947Z,22.42
2018-07-04T10:59:32.680Z,22.43
2018-07-04T11:00:32.770Z,22.43
2018-07-04T11:01:32.857Z,22.43
2018-07-04T11:02:32.850Z,22.43
2018-07-04T11:03:32.875Z,22.43
2018-07-04T11:04:33.007Z,22.42
2018-07-04T11:05:32.817Z,22.44
2018-07-04T11:06:32.821Z,22.43
2018-07-04T11:07:32.852Z,22.43
2018-07-04T11:08:32.742Z,22.43
2018-07-04T11:09:32.893Z,22.43
2018-07-04T11:10:32.813Z,22.43
2018-07-04T11:11:32.757Z,22.43
2018-07-04T11:12:32.860Z,22.43
2018-07-04T11:13:32.831Z,22.43
2018-07-04T11:14:32.709Z,22.44
2018-07-04T11:15:32.765Z,22.43
2018-07-04T11:16:33.018Z,22.43
2018-07-04T11:17:32.674Z,22.43
2018-07-04T11:18:33.008Z,22.43
2018-07-04T11:19:32.842Z,22.44
2018-07-04T11:20:33.046Z,22.44
2018-07-04T11:21:32.701Z,22.43
2018-07-04T11:22:32.933Z,22.43
2018-07-04T11:23:32.831Z,22.43
2018-07-04T11:24:33.024Z,22.44
2018-07-04T11:25:32.768Z,22.43
2018-07-04T11:26:32.834Z,22.43
2018-07-04T11:27:32.860Z,22.43
2018-07-04T11:28:32.845Z,22.43
2018-07-04T11:29:32.851Z,22.43
2018-07-04T11:30:32.796Z,22.43
2018-07-04T11:31:32.773Z,22.42
2018-07-04T11:32:32.896Z,22.43
2018-07-04T11:33:32.776Z,22.42
2018-07-04T11:34:32.931Z,22.43
2018-07-04T11:35:32.865Z,22.43
2018-07-04T11:36:32.759Z,22.43
2018-07-04T11:37:32.736Z,22.43
2018-07-04T11:38:32.673Z,22.43
2018-07-04T11:39:32.958Z,22.43
2018-07-04T11:40:32.876Z,22.42
2018-07-04T11:41:32.965Z,22.42
2018-07-04T11:42:33.011Z,22.43
2018-07-04T11:43:32.751Z,22.43
2018-07-04T11:44:32.933Z,22.43
2018-07-04T11:45:32.926Z,22.43
2018-07-04T11:46:32.791Z,22.43
2018-07-04T11:47:32.874Z,22.43
2018-07-04T11:48:32.688Z,22.43
2018-07-04T11:49:32.855Z,22.42
2018-07-04T11:50:32.887Z,22.44
2018-07-04T11:51:32.970Z,22.42
2018-07-04T11:52:33.064Z,22.43
2018-07-04T11:53:32.695Z,22.43
2018-07-04T11:54:32.842Z,22.43
2018-07-04T11:55:32.754Z,22.43
2018-07-04T11:56:32.958Z,22.44
2018-07-04T11:57:32.884Z,22.42
2018-07-04T11:58:32.829Z,22.43
2018-07-04T11:59:32.975Z,22.42
2018-07-04T12:00:32.790Z,22.42
2018-07-04T12:01:32.821Z,22.42
2018-07-04T12:02:32.934Z,22.44
2018-07-04T12:03:32.809Z,22.44
2018-07-04T12:04:32.702Z,22.43
2018-07-04T12:05:32.951Z,22.43
2018-07-04T12:06:32.996Z,22.43
2018-07-04T12:07:32.828Z,22.42
2018-07-04T12:08:32.895Z,22.43
2018-07-04T12:09:32.807Z,22.43
2018-07-04T12:10:32.966Z,22.43
2018-07-04T12:11:32.892Z,22.42
2018-07-04T12:12:32.942Z,22.42
2018-07-04T12:13:32.673Z,22.42
2018-07-04T12:14:32.919Z,22.43
2018-07-04T12:15:32.855Z,22.42
2018-07-04T12:16:32.938Z,22.42
2018-07-04T12:17:32.791Z,22.43
2018-07-04T12:18:32.838Z,22.43
2018-07-04T12:19:32.765Z,22.42
2018-07-04T12:20:32.803Z,22.43
2018-07-04T12:21:32.787Z,22.42
2018-07-04T12:22:32.765Z,22.42
2018-07-04T12:23:32.703Z,22.42
2018-07-04T12:24:32.811Z,22.43
2018-07-04T12:25:32.795Z,22.42
2018-07-04T12:26:32.876Z,22.43
2018-07-04T12:27:32.759Z,22.43
2018-07-04T12:28:32.892Z,22.42
2018-07-04T12:29:32.986Z,22.43
2018-07-04T12:30:32.985Z,22.43
2018-07-04T12:31:32.631Z,22.42
2018-07-04T12:32:32.908Z,22.43
2018-07-04T12:33:32.945Z,22.42
2018-07-04T12:34:32.984Z,22.42
2018-07-04T12:35:32.723Z,22.42
2018-07-04T12:36:32.808Z,22.42
2018-07-04T12:37:32.767Z,22.42
2018-07-04T12:38:33.048Z,22.42
2018-07-04T12:39:32.860Z,22.42
2018-07-04T12:40:32.813Z,22.43
2018-07-04T12:41:32.762Z,22.43
2018-07-04T12:42:32.971Z,22.42
2018-07-04T12:43:32.830Z,22.43
2018-07-04T12:44:33.094Z,22.43
2018-07-04T12:45:39.456Z,22.42
2018-07-04T12:46:32.887Z,22.43
2018-07-04T12:47:32.832Z,22.43
2018-07-04T12:48:32.855Z,22.42
2018-07-04T12:49:32.725Z,22.42
2018-07-04T12:50:32.887Z,22.43
2018-07-04T12:51:32.995Z,22.43
2018-07-04T12:52:32.697Z,22.42
2018-07-04T12:53:32.857Z,22.42